createdAt,value
2018-07-26T00:00:35.933Z,98807.58
2018-07-26T00:03:03.730Z,98811.41
2018-07-26T00:05:31.569Z,98811.94
2018-07-26T00:07:59.317Z,98815.20
2018-07-26T00:10:27.126Z,98806.66
2018-07-26T00:12:55.018Z,98809.70
2018-07-26T00:15:22.795Z,98813.30
2018-07-26T00:17:50.557Z,98814.47
2018-07-26T00:20:18.313Z,98818.11
2018-07-26T00:22:46.085Z,98821.42
2018-07-26T00:25:13.873Z,98823.39
2018-07-26T00:27:41.678Z,98819.03
2018-07-26T00:30:09.440Z,98812.51
2018-07-26T00:32:37.213Z,98813.65
2018-07-26T00:35:05.098Z,98809.79
2018-07-26T00:37:32.901Z,98809.77
2018-07-26T00:40:00.683Z,98812.80
2018-07-26T00:42:28.469Z,98809.53
2018-07-26T00:44:56.237Z,98803.06
2018-07-26T00:47:24.017Z,98805.27
2018-07-26T00:49:51.777Z,98801.67
2018-07-26T00:52:19.589Z,98805.49
2018-07-26T00:54:47.372Z,98802.70
2018-07-26T00:57:15.197Z,98799.39
2018-07-26T00:59:43.034Z,98794.69
2018-07-26T01:02:10.822Z,98793.02
2018-07-26T01:04:38.610Z,98794.94
2018-07-26T01:07:06.397Z,98794.08
2018-07-26T01:09:34.195Z,98794.83
2018-07-26T01:12:02.090Z,98801.42
2018-07-26T01:14:29.852Z,98795.14
2018-07-26T01:16:57.642Z,98803.36
2018-07-26T01:19:25.464Z,98795.36
2018-07-26T01:21:53.282Z,98795.94
2018-07-26T01:24:21.083Z,98785.82
2018-07-26T01:26:48.898Z,98794.83
2018-07-26T01:29:18.929Z,98796.20
2018-07-26T01:31:46.999Z,98800.09
2018-07-26T01:34:14.778Z,98802.84
2018-07-26T01:36:42.595Z,98805.04
2018-07-26T01:39:10.401Z,98798.94
2018-07-26T01:41:38.181Z,98807.14
2018-07-26T01:44:15.362Z,98805.17
2018-07-26T01:46:43.226Z,98812.77
2018-07-26T01:49:11.037Z,98819.53
2018-07-26T01:51:38.809Z,98814.07
2018-07-26T01:54:06.598Z,98813.87
2018-07-26T01:56:34.363Z,98812.48
2018-07-26T01:59:02.136Z,98815.50
2018-07-26T02:01:29.957Z,98815.58
2018-07-26T02:03:57.741Z,98821.09
2018-07-26T02:06:25.518Z,98825.48
2018-07-26T02:08:53.269Z,98818.05
2018-07-26T02:11:21.044Z,98816.37
2018-07-26T02:13:48.872Z,98813.09
2018-07-26T02:16:16.661Z,98818.05
2018-07-26T02:18:44.469Z,98821.32
2018-07-26T02:21:12.249Z,98815.00
2018-07-26T02:23:40.092Z,98818.31
2018-07-26T02:26:07.910Z,98828.50
2018-07-26T02:28:35.685Z,98824.70
2018-07-26T02:31:03.575Z,98827.74
2018-07-26T02:33:31.339Z,98831.38
2018-07-26T02:35:59.129Z,98831.09
2018-07-26T02:38:26.950Z,98833.14
2018-07-26T02:40:54.758Z,98836.41
2018-07-26T02:43:22.523Z,98831.72
2018-07-26T02:45:50.301Z,98830.92
2018-07-26T02:48:18.089Z,98835.84
2018-07-26T02:50:45.886Z,98837.80
2018-07-26T02:53:13.669Z,98834.56
2018-07-26T02:55:41.425Z,98833.75
2018-07-26T02:58:09.303Z,98836.22
2018-07-26T03:00:37.149Z,98836.50
2018-07-26T03:03:05.094Z,98838.47
2018-07-26T03:05:32.862Z,98845.31
2018-07-26T03:08:00.647Z,98841.41
2018-07-26T03:10:28.427Z,98834.29
2018-07-26T03:12:56.238Z,98836.73
2018-07-26T03:15:24.072Z,98833.69
2018-07-26T03:17:51.865Z,98834.73
2018-07-26T03:20:19.658Z,98833.55
2018-07-26T03:22:47.462Z,98833.84
2018-07-26T03:25:15.258Z,98827.53
2018-07-26T03:27:43.041Z,98831.45
2018-07-26T03:30:10.846Z,98834.13
2018-07-26T03:32:38.685Z,98834.37
2018-07-26T03:35:06.596Z,98838.45
2018-07-26T03:37:34.418Z,98839.83
2018-07-26T03:40:02.209Z,98843.01
2018-07-26T03:42:29.948Z,98848.11
2018-07-26T03:44:57.729Z,98843.80
2018-07-26T03:47:25.509Z,98840.83
2018-07-26T03:49:53.300Z,98843.23
2018-07-26T03:52:21.081Z,98845.10
2018-07-26T03:54:48.858Z,98849.75
2018-07-26T03:57:16.766Z,98848.66
2018-07-26T03:59:44.585Z,98847.52
2018-07-26T04:02:12.373Z,98845.53
2018-07-26T04:04:40.144Z,98836.75
2018-07-26T04:07:07.962Z,98839.02
2018-07-26T04:09:35.757Z,98823.85
2018-07-26T04:12:03.626Z,98831.64
2018-07-26T04:14:31.402Z,98830.52
2018-07-26T04:16:59.157Z,98822.13
2018-07-26T04:19:26.902Z,98825.31
2018-07-26T04:21:54.646Z,98825.47
2018-07-26T04:24:22.433Z,98825.87
2018-07-26T04:26:50.254Z,98828.59
2018-07-26T04:29:18.038Z,98844.22
2018-07-26T04:31:45.844Z,98840.28
2018-07-26T04:34:13.632Z,98850.55
2018-07-26T04:36:41.441Z,98854.20
2018-07-26T04:39:09.929Z,98871.47
2018-07-26T04:41:37.829Z,98869.48
2018-07-26T04:44:05.594Z,98873.17
2018-07-26T04:46:33.338Z,98878.02
2018-07-26T04:49:01.199Z,98884.10
2018-07-26T04:51:28.961Z,98888.38
2018-07-26T04:53:56.737Z,98893.59
2018-07-26T04:56:24.498Z,98895.28
2018-07-26T04:58:52.269Z,98893.58
2018-07-26T05:01:20.094Z,98894.41
2018-07-26T05:03:47.873Z,98895.23
2018-07-26T05:06:15.665Z,98895.53
2018-07-26T05:08:43.419Z,98901.70
2018-07-26T05:11:11.194Z,98903.58
2018-07-26T05:13:38.998Z,98909.30
2018-07-26T05:16:06.794Z,98916.78
2018-07-26T05:18:34.623Z,98913.61
2018-07-26T05:21:02.392Z,98913.87
2018-07-26T05:23:30.217Z,98911.15
2018-07-26T05:25:58.058Z,98918.00
2018-07-26T05:28:25.824Z,98922.45
2018-07-26T05:30:53.595Z,98923.83
2018-07-26T05:33:21.397Z,98918.74
2018-07-26T05:35:49.179Z,98928.16
2018-07-26T05:38:16.985Z,98921.53
2018-07-26T05:40:44.798Z,98916.19
2018-07-26T05:43:12.617Z,98918.16
2018-07-26T05:45:40.382Z,98919.69
2018-07-26T05:48:08.226Z,98917.72
2018-07-26T05:50:36.038Z,98916.23
2018-07-26T05:53:03.853Z,98913.91
2018-07-26T05:55:31.625Z,98909.88
2018-07-26T05:57:59.406Z,98914.88
2018-07-26T06:00:27.158Z,98913.63
2018-07-26T06:02:54.937Z,98908.91
2018-07-26T06:05:22.697Z,98912.02
2018-07-26T06:07:50.525Z,98912.20
2018-07-26T06:10:18.335Z,98920.50
2018-07-26T06:12:46.149Z,98925.12
2018-07-26T06:15:14.229Z,98921.31
2018-07-26T06:17:42.026Z,98925.27
2018-07-26T06:20:11.360Z,98924.81
2018-07-26T06:22:39.602Z,98905.27
2018-07-26T06:25:08.190Z,98905.56
2018-07-26T06:27:35.997Z,98899.64
2018-07-26T06:30:05.787Z,98905.88
2018-07-26T06:32:33.636Z,98906.95
2018-07-26T06:35:01.442Z,98908.69
2018-07-26T06:37:29.299Z,98908.68
2018-07-26T06:39:57.133Z,98909.71
2018-07-26T06:42:24.953Z,98903.97
2018-07-26T06:44:52.764Z,98906.91
2018-07-26T06:47:20.541Z,98902.53
2018-07-26T06:49:48.301Z,98911.30
2018-07-26T06:52:16.152Z,98913.75
2018-07-26T06:54:43.940Z,98914.02
2018-07-26T06:57:11.718Z,98924.53
2018-07-26T06:59:39.517Z,98921.87
2018-07-26T07:02:07.653Z,98928.80
2018-07-26T07:04:35.417Z,98936.11
2018-07-26T07:07:03.300Z,98938.78
2018-07-26T07:09:31.069Z,98939.81
2018-07-26T07:11:58.882Z,98946.54
2018-07-26T07:14:26.724Z,98940.72
2018-07-26T07:16:54.634Z,98946.89
2018-07-26T07:19:22.470Z,98946.81
2018-07-26T07:21:50.313Z,98953.44
2018-07-26T07:24:21.921Z,98941.97
2018-07-26T07:26:51.458Z,98953.77
2018-07-26T07:29:19.559Z,98949.30
2018-07-26T07:31:47.733Z,98949.56
2018-07-26T07:34:15.538Z,98955.75
2018-07-26T07:36:43.395Z,98956.01
2018-07-26T07:39:13.016Z,98954.88
2018-07-26T07:41:40.869Z,98944.20
2018-07-26T07:44:09.229Z,98939.45
2018-07-26T07:46:37.176Z,98942.72
2018-07-26T07:49:05.129Z,98942.70
2018-07-26T07:51:33.243Z,98938.88
2018-07-26T07:54:01.043Z,98938.72
2018-07-26T07:56:28.930Z,98932.73
2018-07-26T07:58:56.760Z,98939.98
2018-07-26T08:01:25.003Z,98939.66
2018-07-26T08:03:52.785Z,98936.32
2018-07-26T08:06:20.590Z,98935.92
2018-07-26T08:08:48.715Z,98926.34
2018-07-26T08:11:16.571Z,98929.80
2018-07-26T08:13:44.362Z,98937.89
2018-07-26T08:16:12.144Z,98935.66
2018-07-26T08:18:39.957Z,98936.64
2018-07-26T08:21:07.750Z,98935.08
2018-07-26T08:23:35.542Z,98933.20
2018-07-26T08:26:03.512Z,98933.58
2018-07-26T08:28:31.298Z,98932.42
2018-07-26T08:30:59.102Z,98932.84
2018-07-26T08:33:26.953Z,98933.86
2018-07-26T08:35:54.750Z,98928.45
2018-07-26T08:38:22.590Z,98924.06
2018-07-26T08:40:50.383Z,98930.28
2018-07-26T08:43:18.190Z,98931.73
2018-07-26T08:45:46.000Z,98929.51
2018-07-26T08:48:13.821Z,98931.30
2018-07-26T08:50:41.702Z,98917.08
2018-07-26T08:53:09.489Z,98912.41
2018-07-26T08:55:37.373Z,98905.86
2018-07-26T08:58:05.168Z,98906.88
2018-07-26T09:00:33.024Z,98902.52
2018-07-26T09:03:00.879Z,98902.44
2018-07-26T09:05:28.686Z,98915.59
2018-07-26T09:07:56.483Z,98908.06
2018-07-26T09:10:24.241Z,98900.62
2018-07-26T09:12:52.150Z,98900.43
2018-07-26T09:15:19.942Z,98897.27
2018-07-26T09:17:47.781Z,98898.50
2018-07-26T09:20:15.571Z,98894.48
2018-07-26T09:22:43.348Z,98895.66
2018-07-26T09:25:11.138Z,98891.09
2018-07-26T09:27:38.934Z,98891.44
2018-07-26T09:30:08.082Z,98882.52
2018-07-26T09:32:35.917Z,98887.02
2018-07-26T09:35:03.747Z,98895.61
2018-07-26T09:37:31.559Z,98892.23
2018-07-26T09:39:59.399Z,98888.23
2018-07-26T09:42:27.215Z,98901.26
2018-07-26T09:44:55.151Z,98892.28
2018-07-26T09:47:22.976Z,98895.52
2018-07-26T09:49:50.906Z,98891.06
2018-07-26T09:52:18.660Z,98890.28
2018-07-26T09:54:46.451Z,98891.70
2018-07-26T09:57:14.252Z,98896.85
2018-07-26T09:59:42.088Z,98891.69
2018-07-26T10:02:09.965Z,98892.12
2018-07-26T10:04:37.749Z,98888.08
2018-07-26T10:07:05.544Z,98889.38
2018-07-26T10:09:34.212Z,98890.94
2018-07-26T10:12:02.008Z,98885.88
2018-07-26T10:14:29.815Z,98887.80
2018-07-26T10:16:57.652Z,98881.77
2018-07-26T10:19:25.462Z,98884.20
2018-07-26T10:21:53.336Z,98879.95
2018-07-26T10:24:21.117Z,98879.68
2018-07-26T10:26:49.342Z,98884.24
2018-07-26T10:29:17.106Z,98879.19
2018-07-26T10:31:44.890Z,98877.48
2018-07-26T10:34:12.705Z,98873.61
2018-07-26T10:36:40.543Z,98865.52
2018-07-26T10:39:09.729Z,98866.75
2018-07-26T10:41:37.555Z,98863.75
2018-07-26T10:44:05.351Z,98857.59
2018-07-26T10:46:33.186Z,98854.70
2018-07-26T10:49:00.993Z,98850.58
2018-07-26T10:51:28.787Z,98857.68
2018-07-26T10:53:56.545Z,98858.23
2018-07-26T10:56:24.414Z,98856.28
2018-07-26T10:58:52.337Z,98853.65
2018-07-26T11:01:20.155Z,98855.09
2018-07-26T11:03:48.024Z,98854.62
2018-07-26T11:06:15.826Z,98849.44
2018-07-26T11:08:43.611Z,98845.36
2018-07-26T11:11:11.399Z,98835.87
2018-07-26T11:13:40.015Z,98840.02
2018-07-26T11:16:07.801Z,98834.55
2018-07-26T11:18:35.652Z,98838.16
2018-07-26T11:21:03.480Z,98835.84
2018-07-26T11:23:31.323Z,98833.36
2018-07-26T11:25:59.161Z,98833.28
2018-07-26T11:28:27.014Z,98815.91
2018-07-26T11:30:54.858Z,98820.64
2018-07-26T11:33:22.733Z,98825.02
2018-07-26T11:35:50.682Z,98821.23
2018-07-26T11:38:18.571Z,98834.00
2018-07-26T11:40:46.424Z,98829.38
2018-07-26T11:43:14.291Z,98823.43
2018-07-26T11:45:42.152Z,98831.36
2018-07-26T11:48:10.061Z,98820.75
2018-07-26T11:50:37.957Z,98812.95
2018-07-26T11:53:06.005Z,98814.52
2018-07-26T11:55:34.361Z,98814.14
2018-07-26T11:58:02.221Z,98807.95
2018-07-26T12:00:30.092Z,98806.48
2018-07-26T12:02:57.973Z,98806.07
2018-07-26T12:05:25.813Z,98802.28
2018-07-26T12:07:53.639Z,98816.43
2018-07-26T12:10:21.457Z,98818.04
2018-07-26T12:12:49.270Z,98821.63
2018-07-26T12:15:17.113Z,98814.44
2018-07-26T12:17:45.014Z,98805.56
2018-07-26T12:20:12.839Z,98808.52
2018-07-26T12:22:40.987Z,98795.49
2018-07-26T12:25:08.837Z,98792.80
2018-07-26T12:27:36.657Z,98787.31
2018-07-26T12:30:06.161Z,98793.66
2018-07-26T12:32:34.019Z,98805.31
2018-07-26T12:35:01.874Z,98797.39
2018-07-26T12:37:29.734Z,98790.42
2018-07-26T12:39:57.606Z,98784.86
2018-07-26T12:42:25.474Z,98777.72
2018-07-26T12:44:53.408Z,98781.23
2018-07-26T12:47:21.250Z,98782.02
2018-07-26T12:49:49.108Z,98785.72
2018-07-26T12:52:18.985Z,98775.48
2018-07-26T12:54:46.867Z,98776.53
2018-07-26T12:57:14.706Z,98776.44
2018-07-26T12:59:42.569Z,98776.99
2018-07-26T13:02:11.754Z,98765.17
2018-07-26T13:04:39.603Z,98782.16
2018-07-26T13:07:07.562Z,98780.91
2018-07-26T13:09:35.401Z,98780.85
2018-07-26T13:12:03.336Z,98783.60
2018-07-26T13:14:31.164Z,98767.06
2018-07-26T13:16:58.981Z,98770.59
2018-07-26T13:19:26.869Z,98759.89
2018-07-26T13:21:54.740Z,98758.93
2018-07-26T13:24:22.660Z,98760.81
2018-07-26T13:26:50.525Z,98764.56
2018-07-26T13:29:18.346Z,98760.67
2018-07-26T13:31:46.261Z,98758.64
2018-07-26T13:34:14.113Z,98757.88
2018-07-26T13:36:41.938Z,98759.50
2018-07-26T13:39:12.201Z,98754.12
2018-07-26T13:41:40.072Z,98758.25
2018-07-26T13:44:08.053Z,98766.17
2018-07-26T13:46:36.238Z,98761.78
2018-07-26T13:49:04.177Z,98757.66
2018-07-26T13:51:32.018Z,98762.00
2018-07-26T13:54:00.134Z,98757.45
2018-07-26T13:56:27.949Z,98761.38
2018-07-26T13:58:55.847Z,98759.80
2018-07-26T14:01:23.736Z,98764.94
2018-07-26T14:03:51.615Z,98770.60
2018-07-26T14:06:19.449Z,98775.72
2018-07-26T14:08:47.283Z,98774.60
2018-07-26T14:11:15.102Z,98777.03
2018-07-26T14:13:42.957Z,98774.89
2018-07-26T14:16:10.793Z,98779.23
2018-07-26T14:18:38.618Z,98781.27
2018-07-26T14:21:06.511Z,98783.91
2018-07-26T14:23:37.830Z,98798.56
2018-07-26T14:26:07.865Z,98792.45
2018-07-26T14:28:35.706Z,98785.30
2018-07-26T14:31:03.565Z,98785.99
2018-07-26T14:33:31.425Z,98797.30
2018-07-26T14:35:59.250Z,98794.81
2018-07-26T14:38:27.164Z,98781.89
2018-07-26T14:40:55.038Z,98787.91
2018-07-26T14:43:22.968Z,98786.95
2018-07-26T14:45:50.943Z,98789.61
2018-07-26T14:48:18.864Z,98782.61
2018-07-26T14:50:46.803Z,98780.55
2018-07-26T14:53:14.708Z,98774.98
2018-07-26T14:55:42.745Z,98775.61
2018-07-26T14:58:10.641Z,98771.36
2018-07-26T15:00:38.558Z,98769.92
2018-07-26T15:03:06.455Z,98767.94
2018-07-26T15:05:34.321Z,98761.77
2018-07-26T15:08:02.204Z,98764.58
2018-07-26T15:10:30.127Z,98767.80
2018-07-26T15:12:58.005Z,98778.48
2018-07-26T15:15:25.868Z,98780.30
2018-07-26T15:17:53.758Z,98781.50
2018-07-26T15:20:21.679Z,98783.09
2018-07-26T15:22:49.552Z,98783.27
2018-07-26T15:25:22.910Z,98777.91
2018-07-26T15:27:50.833Z,98783.18
2018-07-26T15:30:18.930Z,98784.73
2018-07-26T15:32:46.828Z,98797.91
2018-07-26T15:35:14.738Z,98798.91
2018-07-26T15:37:42.730Z,98800.88
2018-07-26T15:40:10.799Z,98794.63
2018-07-26T15:42:38.733Z,98801.92
2018-07-26T15:45:06.670Z,98805.13
2018-07-26T15:47:34.639Z,98813.46
2018-07-26T15:50:02.553Z,98816.32
2018-07-26T15:52:30.522Z,98825.35
2018-07-26T15:54:58.504Z,98829.90
2018-07-26T15:57:26.426Z,98827.72
2018-07-26T15:59:54.360Z,98838.39
2018-07-26T16:02:22.214Z,98841.41
2018-07-26T16:04:50.100Z,98837.90
2018-07-26T16:07:18.038Z,98832.70
2018-07-26T16:09:46.178Z,98833.00
2018-07-26T16:12:14.070Z,98839.42
2018-07-26T16:14:41.956Z,98842.90
2018-07-26T16:17:09.853Z,98835.61
2018-07-26T16:19:37.793Z,98840.48
2018-07-26T16:22:05.961Z,98840.61
2018-07-26T16:24:33.842Z,98842.59
2018-07-26T16:27:01.900Z,98839.75
2018-07-26T16:29:29.837Z,98841.60
2018-07-26T16:31:57.881Z,98842.31
2018-07-26T16:34:25.785Z,98849.91
2018-07-26T16:36:53.977Z,98860.02
2018-07-26T16:39:21.826Z,98865.21
2018-07-26T16:41:49.681Z,98869.19
2018-07-26T16:44:17.535Z,98874.92
2018-07-26T16:46:45.375Z,98888.33
2018-07-26T16:49:13.360Z,98887.30
2018-07-26T16:51:41.305Z,98890.91
2018-07-26T16:54:09.161Z,98890.18
2018-07-26T16:56:37.059Z,98895.42
2018-07-26T16:59:04.947Z,98899.56
2018-07-26T17:01:32.853Z,98898.56
2018-07-26T17:04:00.845Z,98906.47
2018-07-26T17:06:28.733Z,98912.50
2018-07-26T17:08:56.612Z,98915.78
2018-07-26T17:11:24.476Z,98924.27
2018-07-26T17:13:52.330Z,98925.00
2018-07-26T17:16:20.223Z,98923.05
2018-07-26T17:18:48.214Z,98925.55
2018-07-26T17:21:16.078Z,98922.78
2018-07-26T17:23:44.055Z,98933.94
2018-07-26T17:26:11.959Z,98932.40
2018-07-26T17:28:39.916Z,98930.61
2018-07-26T17:31:07.870Z,98935.09
2018-07-26T17:33:36.320Z,98939.67
2018-07-26T17:36:04.306Z,98942.73
2018-07-26T17:38:32.219Z,98940.80
2018-07-26T17:41:00.141Z,98935.73
2018-07-26T17:43:28.042Z,98947.97
2018-07-26T17:45:55.909Z,98943.84
2018-07-26T17:48:23.818Z,98945.88
2018-07-26T17:50:51.709Z,98947.37
2018-07-26T17:53:19.582Z,98945.58
2018-07-26T17:55:47.497Z,98940.91
2018-07-26T17:58:15.378Z,98947.09
2018-07-26T18:00:43.246Z,98940.53
2018-07-26T18:03:11.122Z,98947.03
2018-07-26T18:05:39.023Z,98952.19
2018-07-26T18:08:06.997Z,98950.63
2018-07-26T18:10:34.911Z,98950.93
2018-07-26T18:13:02.889Z,98965.20
2018-07-26T18:15:30.742Z,98964.05
2018-07-26T18:17:58.648Z,98964.94
2018-07-26T18:20:26.596Z,98969.55
2018-07-26T18:22:54.521Z,98973.84
2018-07-26T18:25:22.379Z,98981.55
2018-07-26T18:27:50.258Z,98980.16
2018-07-26T18:30:18.162Z,98980.03
2018-07-26T18:32:46.141Z,98984.06
2018-07-26T18:35:14.056Z,99003.45
2018-07-26T18:37:42.001Z,98999.81
2018-07-26T18:40:09.933Z,99010.55
2018-07-26T18:42:37.944Z,99022.23
2018-07-26T18:45:07.283Z,99041.78
2018-07-26T18:47:35.237Z,99048.84
2018-07-26T18:50:03.340Z,99053.38
2018-07-26T18:52:31.191Z,99050.34
2018-07-26T18:54:59.082Z,99053.84
2018-07-26T18:57:26.948Z,99053.38
2018-07-26T18:59:54.853Z,99056.66
2018-07-26T19:02:22.774Z,99056.66
2018-07-26T19:04:50.724Z,99065.36
2018-07-26T19:07:18.671Z,99065.20
2018-07-26T19:09:46.556Z,99066.06
2018-07-26T19:12:14.509Z,99058.50
2018-07-26T19:14:42.395Z,99057.81
2018-07-26T19:17:10.456Z,99059.08
2018-07-26T19:19:38.360Z,99047.59
2018-07-26T19:22:06.753Z,99058.41
2018-07-26T19:24:34.746Z,99053.96
2018-07-26T19:27:02.989Z,99047.11
2018-07-26T19:29:30.869Z,99047.84
2018-07-26T19:31:58.752Z,99052.52
2018-07-26T19:34:26.677Z,99052.45
2018-07-26T19:36:54.610Z,99052.50
2018-07-26T19:39:22.587Z,99050.06
2018-07-26T19:41:50.625Z,99044.66
2018-07-26T19:44:18.556Z,99046.08
2018-07-26T19:46:46.496Z,99042.69
2018-07-26T19:49:14.447Z,99040.95
2018-07-26T19:51:42.306Z,99041.19
2018-07-26T19:54:10.226Z,99035.91
2018-07-26T19:56:38.134Z,99036.93
2018-07-26T19:59:06.116Z,99035.39
2018-07-26T20:01:34.038Z,99042.80
2018-07-26T20:04:01.953Z,99039.05
2018-07-26T20:06:30.165Z,99042.87
2018-07-26T20:08:58.105Z,99045.11
2018-07-26T20:11:25.988Z,99051.25
2018-07-26T20:13:53.862Z,99051.69
2018-07-26T20:16:21.710Z,99047.89
2018-07-26T20:18:49.560Z,99042.67
2018-07-26T20:21:17.490Z,99039.52
2018-07-26T20:23:45.373Z,99040.52
2018-07-26T20:26:13.298Z,99031.58
2018-07-26T20:28:41.233Z,99038.67
2018-07-26T20:31:09.117Z,99043.71
2018-07-26T20:33:37.084Z,99043.25
2018-07-26T20:36:05.090Z,99043.83
2018-07-26T20:38:32.953Z,99053.19
2018-07-26T20:41:00.818Z,99050.69
2018-07-26T20:43:28.732Z,99046.42
2018-07-26T20:45:56.646Z,99044.84
2018-07-26T20:48:24.629Z,99043.98
2018-07-26T20:50:52.497Z,99047.20
2018-07-26T20:53:20.391Z,99043.59
2018-07-26T20:55:48.276Z,99046.25
2018-07-26T20:58:16.181Z,99047.80
2018-07-26T21:00:44.106Z,99057.52
2018-07-26T21:03:11.982Z,99054.75
2018-07-26T21:05:39.828Z,99057.02
2018-07-26T21:08:07.704Z,99059.11
2018-07-26T21:10:36.603Z,99059.36
2018-07-26T21:13:04.488Z,99053.25
2018-07-26T21:15:32.434Z,99066.38
2018-07-26T21:18:00.335Z,99068.39
2018-07-26T21:20:28.206Z,99060.77
2018-07-26T21:22:56.093Z,99060.95
2018-07-26T21:25:23.933Z,99057.91
2018-07-26T21:27:51.849Z,99054.53
2018-07-26T21:30:19.713Z,99060.59
2018-07-26T21:32:47.623Z,99053.48
2018-07-26T21:35:15.547Z,99052.45
2018-07-26T21:37:43.425Z,99047.92
2018-07-26T21:40:11.258Z,99047.92
2018-07-26T21:42:39.143Z,99045.50
2018-07-26T21:45:07.094Z,99039.92
2018-07-26T21:47:34.963Z,99042.17
2018-07-26T21:50:02.931Z,99041.14
2018-07-26T21:52:30.863Z,99043.47
2018-07-26T21:54:58.698Z,99043.88
2018-07-26T21:57:26.673Z,99039.23
2018-07-26T21:59:54.513Z,99037.00
2018-07-26T22:02:22.457Z,99030.60
2018-07-26T22:04:50.364Z,99025.89
2018-07-26T22:07:18.268Z,99022.83
2018-07-26T22:09:46.119Z,99029.41
2018-07-26T22:12:13.989Z,99022.89
2018-07-26T22:14:41.836Z,99022.73
2018-07-26T22:17:09.946Z,99028.38
2018-07-26T22:19:37.820Z,99029.38
2018-07-26T22:22:05.687Z,99023.83
2018-07-26T22:24:33.550Z,99035.04
2018-07-26T22:27:01.390Z,99029.53
2018-07-26T22:29:29.238Z,99035.28
2018-07-26T22:31:57.127Z,99038.45
2018-07-26T22:34:24.951Z,99042.11
2018-07-26T22:36:52.865Z,99041.59
2018-07-26T22:39:20.727Z,99043.67
2018-07-26T22:41:48.594Z,99047.66
2018-07-26T22:44:16.483Z,99050.97
2018-07-26T22:46:44.381Z,99049.47
2018-07-26T22:49:12.251Z,99051.45
2018-07-26T22:51:40.126Z,99055.42
2018-07-26T22:54:08.001Z,99058.26
2018-07-26T22:56:35.902Z,99061.78
2018-07-26T22:59:03.832Z,99058.48
2018-07-26T23:01:31.744Z,99063.48
2018-07-26T23:03:59.626Z,99070.59
2018-07-26T23:06:27.687Z,99061.52
2018-07-26T23:08:55.528Z,99067.22
2018-07-26T23:11:23.377Z,99066.70
2018-07-26T23:13:51.277Z,99071.47
2018-07-26T23:16:19.114Z,99071.92
2018-07-26T23:18:47.005Z,99074.22
2018-07-26T23:21:14.894Z,99070.97
2018-07-26T23:23:42.733Z,99071.87
2018-07-26T23:26:10.686Z,99068.92
2018-07-26T23:28:38.533Z,99071.19
2018-07-26T23:31:06.580Z,99070.05
2018-07-26T23:33:34.422Z,99080.75
2018-07-26T23:36:02.280Z,99083.30
2018-07-26T23:38:30.141Z,99080.47
2018-07-26T23:40:57.973Z,99088.27
2018-07-26T23:43:25.835Z,99086.92
2018-07-26T23:45:53.700Z,99080.55
2018-07-26T23:48:21.556Z,99080.64
2018-07-26T23:50:49.467Z,99074.22
2018-07-26T23:53:17.310Z,99079.33
2018-07-26T23:55:45.170Z,99076.53
2018-07-26T23:58:13.036Z,99080.63
